Time;durP1;ratioP1;P1;durP2;ratioP2;P2;SDS_P1;SDS_P2;PMS_P1;PMS_P2;Temp;Humidity;BMP_temperature;BMP_pressure;BME280_temperature;BME280_humidity;BME280_pressure;Samples;Min_cycle;Max_cycle;Signal;HPM_P1;HPM_P2
2021/11/20 00:01:30;;;;;;;33.00;17.20;;;;;;;4.00;100.00;97522.91;5024329;28;20030;-73
2021/11/20 00:03:57;;;;;;;29.83;16.40;;;;;;;4.00;100.00;97522.06;4996887;28;20056;-73
2021/11/20 00:06:29;;;;;;;35.80;17.50;;;;;;;4.01;100.00;97519.38;5012502;28;20030;-73
2021/11/20 00:08:55;;;;;;;35.03;17.80;;;;;;;4.05;100.00;97514.81;5035947;28;20032;-74
2021/11/20 00:11:24;;;;;;;36.03;16.87;;;;;;;4.08;100.00;97514.66;5017602;28;20665;-73
2021/11/20 00:13:51;;;;;;;43.40;18.53;;;;;;;4.05;100.00;97514.81;5022298;28;20041;-73
2021/11/20 00:16:19;;;;;;;34.43;17.20;;;;;;;4.05;100.00;97519.19;5031031;28;20032;-73
2021/11/20 00:18:45;;;;;;;33.73;17.77;;;;;;;4.06;100.00;97516.53;5037507;28;20032;-73
2021/11/20 00:21:15;;;;;;;34.90;16.97;;;;;;;4.06;100.00;97520.88;5033225;28;20071;-73
2021/11/20 00:23:47;;;;;;;32.87;17.87;;;;;;;4.00;100.00;97517.69;5003666;28;20040;-73
2021/11/20 00:26:15;;;;;;;37.03;18.60;;;;;;;4.03;100.00;97510.66;5028902;28;20029;-74
2021/11/20 00:31:29;;;;;;;32.07;17.60;;;;;;;4.10;100.00;97515.41;5018678;28;20029;-73
2021/11/20 00:33:55;;;;;;;35.73;17.37;;;;;;;4.03;100.00;97511.50;5014939;28;20037;-73
2021/11/20 00:36:22;;;;;;;33.80;16.87;;;;;;;4.07;100.00;97502.56;5024811;28;20033;-73
2021/11/20 00:38:49;;;;;;;35.10;17.83;;;;;;;4.13;100.00;97504.00;5041537;28;20048;-74
2021/11/20 00:41:19;;;;;;;39.33;20.13;;;;;;;4.09;100.00;97507.69;5016251;28;20029;-73
2021/11/20 00:43:48;;;;;;;36.43;17.30;;;;;;;4.06;100.00;97515.66;5010848;28;20402;-73
2021/11/20 00:46:16;;;;;;;38.57;17.47;;;;;;;4.07;100.00;97517.34;5015265;28;20049;-73
2021/11/20 00:48:45;;;;;;;45.27;19.93;;;;;;;4.02;100.00;97517.59;5004679;28;20025;-73
2021/11/20 00:51:14;;;;;;;46.47;20.83;;;;;;;4.07;100.00;97522.56;5028521;28;20032;-74
2021/11/20 00:53:41;;;;;;;49.37;22.80;;;;;;;4.05;100.00;97525.25;5012957;28;20064;-73
2021/11/20 00:56:11;;;;;;;45.30;21.30;;;;;;;4.08;100.00;97516.44;5005196;28;20025;-73
2021/11/20 00:58:37;;;;;;;53.67;21.17;;;;;;;4.07;100.00;97522.56;5015551;28;20035;-73
2021/11/20 01:01:10;;;;;;;48.10;21.43;;;;;;;4.12;100.00;97520.53;5016967;28;20024;-73
2021/11/20 01:03:38;;;;;;;49.80;22.00;;;;;;;4.10;100.00;97519.78;5000515;28;20398;-73
2021/11/20 01:06:06;;;;;;;48.47;20.73;;;;;;;4.05;100.00;97514.81;5018874;28;20046;-74
2021/11/20 01:08:40;;;;;;;39.23;18.97;;;;;;;4.04;100.00;97514.94;5009202;28;20128;-73
2021/11/20 01:11:18;;;;;;;49.23;18.87;;;;;;;4.00;100.00;97507.28;5011950;28;20088;-74
2021/11/20 01:13:44;;;;;;;43.83;18.73;;;;;;;4.00;100.00;97512.50;5009465;28;20620;-73
2021/11/20 01:16:12;;;;;;;42.83;17.83;;;;;;;4.01;100.00;97511.56;5018453;28;20021;-74
2021/11/20 01:18:38;;;;;;;43.07;18.47;;;;;;;4.05;100.00;97506.19;5006880;28;20028;-75
2021/11/20 01:21:24;;;;;;;45.40;19.30;;;;;;;4.02;100.00;97501.97;4976414;28;20092;-74
2021/11/20 01:23:53;;;;;;;44.90;19.20;;;;;;;4.01;100.00;97501.16;4999139;28;20037;-74
2021/11/20 01:26:21;;;;;;;46.50;20.47;;;;;;;4.05;100.00;97490.56;5004935;28;20533;-74
2021/11/20 01:28:56;;;;;;;54.17;21.60;;;;;;;4.03;100.00;97482.03;5031370;28;20029;-73
2021/11/20 01:31:44;;;;;;;52.07;20.03;;;;;;;4.05;100.00;97486.19;4997744;28;20028;-73
2021/11/20 01:34:10;;;;;;;48.50;19.80;;;;;;;4.03;100.00;97492.44;5018456;28;20127;-74
2021/11/20 01:36:41;;;;;;;54.80;20.80;;;;;;;4.04;100.00;97491.50;5014726;28;20107;-75
2021/11/20 01:39:14;;;;;;;51.93;21.97;;;;;;;4.06;100.00;97482.69;5016332;28;20052;-73
2021/11/20 01:41:48;;;;;;;54.57;20.77;;;;;;;4.05;100.00;97483.59;5014483;28;20566;-74
2021/11/20 01:44:41;;;;;;;51.75;21.75;;;;;;;4.09;100.00;97489.47;5026853;28;20025;-73
2021/11/20 01:47:47;;;;;;;51.30;21.30;;;;;;;4.08;100.00;97473.00;4996361;28;20057;-74
2021/11/20 01:50:20;;;;;;;49.27;21.20;;;;;;;4.05;100.00;97472.34;5015086;28;20032;-74
2021/11/20 01:52:59;;;;;;;53.17;21.27;;;;;;;4.09;100.00;97473.84;5001095;28;20502;-74
2021/11/20 01:55:37;;;;;;;51.63;20.37;;;;;;;4.04;100.00;97461.09;5013042;28;20037;-73
2021/11/20 01:58:35;;;;;;;48.70;21.43;;;;;;;4.11;100.00;97456.38;5013616;28;20041;-74
2021/11/20 02:01:15;;;;;;;50.30;21.83;;;;;;;4.10;100.00;97459.91;5004532;28;20025;-74
2021/11/20 02:04:02;;;;;;;46.30;20.70;;;;;;;4.13;100.00;97451.94;4997403;28;20040;-73
2021/11/20 02:06:51;;;;;;;49.17;21.60;;;;;;;4.22;100.00;97453.97;5007584;28;20044;-73
2021/11/20 02:09:31;;;;;;;48.77;21.67;;;;;;;4.16;100.00;97449.97;5011449;28;20033;-73
2021/11/20 02:12:38;;;;;;;43.50;21.03;;;;;;;4.09;100.00;97450.41;5016855;28;20029;-73
2021/11/20 02:15:26;;;;;;;41.20;20.63;;;;;;;4.12;100.00;97445.03;5011886;28;20080;-73
2021/11/20 02:17:54;;;;;;;42.58;20.75;;;;;;;4.10;100.00;97439.09;5009828;28;20098;-73
2021/11/20 02:20:43;;;;;;;42.87;20.43;;;;;;;4.08;100.00;97440.94;5009170;28;20119;-73
2021/11/20 02:23:22;;;;;;;38.97;19.00;;;;;;;4.11;100.00;97441.59;5013523;28;20453;-73
2021/11/20 02:25:49;;;;;;;39.07;19.50;;;;;;;4.13;100.00;97438.91;5022842;28;20065;-73
2021/11/20 02:28:32;;;;;;;45.20;21.33;;;;;;;4.14;100.00;97430.16;5009428;28;20116;-73
2021/11/20 02:31:06;;;;;;;39.30;19.23;;;;;;;4.16;100.00;97423.94;5013237;28;20114;-74
2021/11/20 02:33:40;;;;;;;37.90;18.63;;;;;;;4.16;100.00;97415.31;4994448;28;20071;-74
2021/11/20 02:36:12;;;;;;;39.73;20.27;;;;;;;4.11;100.00;97412.13;4990678;28;20029;-74
2021/11/20 02:38:57;;;;;;;33.20;17.53;;;;;;;4.13;100.00;97415.47;5002744;28;20033;-74
2021/11/20 02:41:26;;;;;;;33.10;17.43;;;;;;;4.13;100.00;97418.91;4999919;28;20366;-73
2021/11/20 02:43:54;;;;;;;33.93;18.60;;;;;;;4.13;100.00;97407.69;5002795;28;20106;-73
2021/11/20 02:46:26;;;;;;;33.47;18.13;;;;;;;4.13;100.00;97405.91;5018331;28;20040;-73
2021/11/20 02:48:55;;;;;;;31.03;18.17;;;;;;;4.17;100.00;97398.75;5022685;28;20030;-73
2021/11/20 02:51:24;;;;;;;38.07;19.33;;;;;;;4.17;100.00;97398.75;5009744;28;20036;-74
2021/11/20 02:54:00;;;;;;;32.90;18.27;;;;;;;4.22;100.00;97396.69;5017660;28;20057;-73
2021/11/20 02:56:32;;;;;;;35.63;19.67;;;;;;;4.22;100.00;97391.47;5000653;28;20114;-74
2021/11/20 02:58:59;;;;;;;33.30;18.97;;;;;;;4.24;100.00;97400.06;5015344;28;20026;-73
2021/11/20 03:01:35;;;;;;;31.30;16.45;;;;;;;4.23;100.00;97388.81;5032215;28;20036;-74
2021/11/20 03:04:07;;;;;;;35.03;17.97;;;;;;;4.24;100.00;97389.63;5017166;28;20033;-74
2021/11/20 03:06:34;;;;;;;30.57;17.47;;;;;;;4.28;100.00;97385.09;5013997;28;20033;-73
2021/11/20 03:09:01;;;;;;;34.23;18.83;;;;;;;4.25;100.00;97394.75;5006584;28;20160;-74
2021/11/20 03:11:27;;;;;;;34.47;18.50;;;;;;;4.22;100.00;97386.28;5026136;28;20023;-73
2021/11/20 03:13:56;;;;;;;31.90;18.10;;;;;;;4.24;100.00;97389.63;5016555;28;20027;-73
2021/11/20 03:16:48;;;;;;;31.87;18.40;;;;;;;4.23;100.00;97383.59;5011380;28;20445;-73
2021/11/20 03:19:14;;;;;;;33.53;18.60;;;;;;;4.23;100.00;97377.56;5034169;28;20043;-74
2021/11/20 03:21:43;;;;;;;32.10;17.83;;;;;;;4.24;100.00;97379.22;5016644;28;20104;-73
2021/11/20 03:24:12;;;;;;;30.60;16.00;;;;;;;4.29;100.00;97382.38;5036094;28;20455;-74
2021/11/20 03:26:38;;;;;;;33.37;17.23;;;;;;;4.27;100.00;97381.66;5010872;28;20147;-73
2021/11/20 03:29:03;;;;;;;33.53;17.63;;;;;;;4.29;100.00;97376.34;5041977;28;20052;-73
2021/11/20 03:31:29;;;;;;;33.80;18.90;;;;;;;4.21;100.00;97369.00;4996804;28;20022;-74
2021/11/20 03:33:55;;;;;;;31.83;17.27;;;;;;;4.20;100.00;97372.53;5029838;28;20116;-73
2021/11/20 03:36:22;;;;;;;36.07;18.70;;;;;;;4.24;100.00;97371.41;4998598;28;20140;-73
2021/11/20 03:38:49;;;;;;;34.37;19.00;;;;;;;4.23;100.00;97377.56;5036582;28;20562;-74
2021/11/20 03:41:16;;;;;;;31.43;18.60;;;;;;;4.23;100.00;97361.94;4996494;28;20091;-73
2021/11/20 03:43:43;;;;;;;31.70;16.97;;;;;;;4.20;100.00;97359.50;4995829;28;20025;-73
2021/11/20 03:46:09;;;;;;;38.53;20.60;;;;;;;4.23;100.00;97365.38;4999868;28;20481;-74
2021/11/20 03:48:35;;;;;;;35.33;18.73;;;;;;;4.24;100.00;97361.00;5026789;28;20032;-73
2021/11/20 03:51:01;;;;;;;32.60;19.07;;;;;;;4.29;100.00;97358.09;5022932;28;20053;-73
2021/11/20 03:53:27;;;;;;;38.93;19.03;;;;;;;4.22;100.00;97349.81;5018257;28;20025;-74
2021/11/20 03:55:54;;;;;;;34.03;19.00;;;;;;;4.22;100.00;97349.81;5033825;28;20039;-73
2021/11/20 03:58:21;;;;;;;40.27;21.57;;;;;;;4.25;100.00;97352.25;5004459;28;20403;-73
2021/11/20 04:00:57;;;;;;;42.00;20.70;;;;;;;4.24;100.00;97347.97;5021923;28;20051;-74
2021/11/20 04:03:28;;;;;;;38.93;20.53;;;;;;;4.30;100.00;97350.22;5001890;28;20039;-74
2021/11/20 04:05:55;;;;;;;36.70;20.37;;;;;;;4.31;100.00;97344.06;5031398;28;20033;-73
2021/11/20 04:08:22;;;;;;;37.73;19.53;;;;;;;4.33;100.00;97346.59;5011391;28;20028;-73
2021/11/20 04:11:11;;;;;;;28.87;17.27;;;;;;;4.30;100.00;97350.22;5046260;28;20457;-73
2021/11/20 04:13:40;;;;;;;31.30;17.13;;;;;;;4.24;100.00;97346.22;5025783;28;20025;-73
2021/11/20 04:16:07;;;;;;;31.53;17.67;;;;;;;4.24;100.00;97345.38;5010263;28;20078;-74
2021/11/20 04:18:33;;;;;;;34.97;20.63;;;;;;;4.24;100.00;97342.78;5044703;28;20029;-73
2021/11/20 04:20:59;;;;;;;34.90;19.67;;;;;;;4.24;100.00;97343.59;5041950;28;20032;-73
2021/11/20 04:23:28;;;;;;;34.07;19.60;;;;;;;4.22;100.00;97336.81;5021851;28;20029;-73
2021/11/20 04:25:55;;;;;;;36.10;19.37;;;;;;;4.20;100.00;97336.09;5022720;28;20493;-73
2021/11/20 04:28:21;;;;;;;32.80;18.80;;;;;;;4.20;100.00;97336.91;5030151;28;20115;-73
2021/11/20 04:30:57;;;;;;;31.37;18.67;;;;;;;4.24;100.00;97341.00;5000878;28;20029;-73
2021/11/20 04:33:24;;;;;;;32.13;18.57;;;;;;;4.25;100.00;97331.41;5011778;28;20029;-73
2021/11/20 04:35:49;;;;;;;34.57;17.67;;;;;;;4.24;100.00;97329.75;5000423;28;20094;-75
2021/11/20 04:38:16;;;;;;;59.17;31.07;;;;;;;4.25;100.00;97334.03;5027932;28;20451;-73
2021/11/20 04:40:42;;;;;;;56.57;30.60;;;;;;;4.28;100.00;97333.84;5017707;28;20083;-73
2021/11/20 04:43:09;;;;;;;57.00;29.93;;;;;;;4.30;100.00;97332.00;5006269;28;20026;-73
2021/11/20 04:45:38;;;;;;;51.70;26.80;;;;;;;4.29;100.00;97335.50;5022797;28;20040;-74
2021/11/20 04:48:06;;;;;;;40.77;21.33;;;;;;;4.32;100.00;97331.88;5020523;28;20032;-73
2021/11/20 04:50:56;;;;;;;37.10;19.70;;;;;;;4.31;100.00;97325.00;5036188;28;20036;-73
2021/11/20 04:53:23;;;;;;;40.03;20.17;;;;;;;4.29;100.00;97324.25;5023875;28;20467;-74
2021/11/20 04:55:52;;;;;;;34.63;18.90;;;;;;;4.24;100.00;97316.72;5008167;28;20080;-74
2021/11/20 04:58:18;;;;;;;32.63;17.57;;;;;;;4.22;100.00;97311.59;5029582;28;20037;-73
2021/11/20 05:00:48;;;;;;;29.80;18.43;;;;;;;4.30;100.00;97310.31;5020135;28;20719;-74
2021/11/20 05:03:20;;;;;;;30.80;18.17;;;;;;;4.27;100.00;97306.13;5003928;28;20813;-73
2021/11/20 05:05:47;;;;;;;32.27;18.03;;;;;;;4.31;100.00;97305.00;5008080;28;20041;-73
2021/11/20 05:08:16;;;;;;;34.33;18.50;;;;;;;4.30;100.00;97300.75;5008603;28;20021;-73
2021/11/20 05:10:44;;;;;;;35.13;19.17;;;;;;;4.33;100.00;97297.13;5005838;28;20025;-73
2021/11/20 05:13:11;;;;;;;33.53;18.50;;;;;;;4.33;100.00;97295.34;5034301;28;20017;-73
2021/11/20 05:15:41;;;;;;;30.97;17.47;;;;;;;4.35;100.00;97295.25;5026567;28;20128;-73
2021/11/20 05:18:09;;;;;;;32.50;18.87;;;;;;;4.35;100.00;97292.63;5019350;28;20386;-73
2021/11/20 05:20:45;;;;;;;35.53;18.03;;;;;;;4.36;100.00;97287.34;5019767;28;20026;-73
2021/11/20 05:23:12;;;;;;;33.23;17.23;;;;;;;4.37;100.00;97291.63;5002378;28;20022;-73
2021/11/20 05:25:39;;;;;;;34.30;18.30;;;;;;;4.31;100.00;97294.59;5001631;28;20029;-73
2021/11/20 05:28:06;;;;;;;32.47;18.57;;;;;;;4.34;100.00;97286.59;5021086;28;20398;-73
2021/11/20 05:30:37;;;;;;;28.70;17.03;;;;;;;4.36;100.00;97279.53;5020326;28;20037;-73
2021/11/20 05:33:11;;;;;;;33.57;19.60;;;;;;;4.35;100.00;97280.44;5007236;28;20032;-74
2021/11/20 05:35:38;;;;;;;34.10;18.70;;;;;;;4.34;100.00;97281.38;5031060;28;20107;-73
2021/11/20 05:38:06;;;;;;;35.50;19.13;;;;;;;4.39;100.00;97284.56;5020942;28;20025;-73
2021/11/20 05:40:33;;;;;;;30.00;17.40;;;;;;;4.40;100.00;97282.78;5009118;28;20132;-73
2021/11/20 05:43:03;;;;;;;31.43;18.13;;;;;;;4.38;100.00;97287.25;5016035;28;20030;-73
2021/11/20 05:45:32;;;;;;;29.73;17.73;;;;;;;4.33;100.00;97284.09;5021220;28;20036;-73
2021/11/20 05:47:59;;;;;;;32.43;18.83;;;;;;;4.37;100.00;97286.41;5007673;28;20718;-73
2021/11/20 05:50:26;;;;;;;32.63;18.60;;;;;;;4.36;100.00;97283.88;5014648;28;20497;-73
2021/11/20 05:52:56;;;;;;;31.30;18.10;;;;;;;4.42;100.00;97281.72;5009982;28;20482;-73
2021/11/20 05:55:26;;;;;;;35.33;19.20;;;;;;;4.41;100.00;97282.69;5008415;28;20406;-73
2021/11/20 05:57:53;;;;;;;29.73;19.03;;;;;;;4.41;100.00;97279.25;5020762;28;20124;-74
2021/11/20 06:00:24;;;;;;;32.83;20.03;;;;;;;4.42;100.00;97289.53;5019259;28;20132;-73
2021/11/20 06:02:52;;;;;;;41.10;24.33;;;;;;;4.35;100.00;97282.22;5026965;28;20490;-73
2021/11/20 06:05:22;;;;;;;36.67;20.30;;;;;;;4.32;100.00;97278.03;5012054;28;20127;-73
2021/11/20 06:07:48;;;;;;;34.73;20.60;;;;;;;4.24;100.00;97275.06;5008945;28;20026;-73
2021/11/20 06:10:13;;;;;;;34.20;19.17;;;;;;;4.30;100.00;97271.25;5016880;28;20021;-73
2021/11/20 06:12:40;;;;;;;34.23;19.00;;;;;;;4.33;100.00;97277.13;5013567;28;20029;-73
2021/11/20 06:15:06;;;;;;;36.83;19.93;;;;;;;4.32;100.00;97275.44;5005404;28;20102;-73
2021/11/20 06:17:34;;;;;;;33.30;18.93;;;;;;;4.35;100.00;97261.38;5021640;28;20032;-73
2021/11/20 06:20:00;;;;;;;34.60;20.50;;;;;;;4.35;100.00;97262.22;5029178;28;20037;-73
2021/11/20 06:22:28;;;;;;;30.73;18.17;;;;;;;4.39;100.00;97262.84;5000474;28;20211;-73
2021/11/20 06:24:57;;;;;;;62.33;32.77;;;;;;;4.42;100.00;97267.88;5030400;28;20021;-74
2021/11/20 06:27:24;;;;;;;78.37;40.90;;;;;;;4.45;100.00;97273.72;5019265;28;20045;-74
2021/11/20 06:29:55;;;;;;;57.08;34.30;;;;;;;4.53;100.00;97267.19;5010753;28;20036;-73
2021/11/20 06:32:21;;;;;;;39.80;24.13;;;;;;;4.48;100.00;97272.72;5012541;28;20081;-73
2021/11/20 06:34:58;;;;;;;45.17;24.60;;;;;;;4.51;100.00;97269.09;5019158;28;20017;-73
2021/11/20 06:37:47;;;;;;;34.03;20.57;;;;;;;4.52;100.00;97283.78;5024465;28;20289;-73
2021/11/20 06:40:27;;;;;;;30.87;17.17;;;;;;;4.46;100.00;97278.03;5011054;28;20116;-73
2021/11/20 06:42:54;;;;;;;29.77;17.47;;;;;;;4.44;100.00;97279.88;5011898;28;20585;-73
2021/11/20 06:45:25;;;;;;;27.80;16.47;;;;;;;4.52;100.00;97284.59;5007932;28;20409;-74
2021/11/20 06:47:52;;;;;;;29.07;17.70;;;;;;;4.49;100.00;97285.66;4997421;28;20233;-74
2021/11/20 06:50:20;;;;;;;27.00;17.10;;;;;;;4.51;100.00;97290.75;4995975;28;20025;-73
2021/11/20 06:53:22;;;;;;;26.53;17.20;;;;;;;4.55;100.00;97297.44;4961463;28;20113;-73
2021/11/20 06:56:14;;;;;;;27.60;18.10;;;;;;;4.59;100.00;97295.47;4985392;28;20057;-73
2021/11/20 06:59:17;;;;;;;25.43;16.60;;;;;;;4.64;100.00;97301.25;5032898;28;20041;-73
2021/11/20 07:01:46;;;;;;;27.63;16.73;;;;;;;4.63;100.00;97289.16;5006669;28;20021;-73
2021/11/20 07:04:18;;;;;;;25.43;18.07;;;;;;;4.64;100.00;97293.44;5024515;28;20125;-73
2021/11/20 07:06:56;;;;;;;26.05;16.63;;;;;;;4.69;100.00;97291.34;5013225;28;20056;-75
2021/11/20 07:09:23;;;;;;;29.93;18.17;;;;;;;4.70;100.00;97299.09;5011355;28;20091;-73
2021/11/20 07:11:49;;;;;;;29.23;18.10;;;;;;;4.75;100.00;97293.59;5020123;28;20497;-74
2021/11/20 07:14:15;;;;;;;24.67;17.07;;;;;;;4.75;100.00;97293.59;5030232;28;20121;-74
2021/11/20 07:16:43;;;;;;;27.63;18.23;;;;;;;4.76;100.00;97287.44;5035787;28;20047;-74
2021/11/20 07:19:10;;;;;;;31.37;19.33;;;;;;;4.79;100.00;97279.41;5010809;28;20052;-74
2021/11/20 07:21:59;;;;;;;28.03;18.83;;;;;;;4.83;100.00;97278.31;4995330;28;20120;-74
2021/11/20 07:24:50;;;;;;;31.10;19.23;;;;;;;4.83;100.00;97277.44;5022623;28;20037;-74
2021/11/20 07:27:16;;;;;;;27.17;18.83;;;;;;;4.90;100.00;97273.53;5000435;28;20022;-74
2021/11/20 07:29:42;;;;;;;26.37;18.30;;;;;;;4.89;100.00;97271.84;5019681;28;20029;-74
2021/11/20 07:32:11;;;;;;;28.27;18.47;;;;;;;4.95;100.00;97272.28;5033783;28;20548;-74
2021/11/20 07:34:38;;;;;;;31.83;17.40;;;;;;;4.96;100.00;97267.91;5004788;28;20029;-74
2021/11/20 07:37:05;;;;;;;23.90;15.87;;;;;;;4.97;100.00;97264.38;5020570;28;20028;-74
2021/11/20 07:39:34;;;;;;;13.90;9.60;;;;;;;5.05;100.00;97261.28;5041100;28;20112;-74
2021/11/20 07:42:01;;;;;;;14.63;8.67;;;;;;;5.10;100.00;97264.44;5025211;28;20466;-74
2021/11/20 07:44:28;;;;;;;10.47;6.60;;;;;;;5.17;100.00;97268.31;5004126;28;20037;-74
2021/11/20 07:46:55;;;;;;;12.07;8.67;;;;;;;5.25;100.00;97263.41;5000127;28;21249;-73
2021/11/20 07:49:25;;;;;;;12.23;8.17;;;;;;;5.24;100.00;97260.91;5014682;28;20021;-74
2021/11/20 07:51:53;;;;;;;15.87;10.03;;;;;;;5.28;100.00;97257.16;5019997;28;20039;-74
2021/11/20 07:54:19;;;;;;;17.27;10.67;;;;;;;5.25;100.00;97247.75;5018632;28;20025;-74
2021/11/20 07:57:04;;;;;;;19.67;13.33;;;;;;;5.30;100.00;97245.69;5021499;28;20043;-74
2021/11/20 07:59:31;;;;;;;34.13;23.47;;;;;;;5.33;100.00;97249.84;5016264;28;20037;-74
2021/11/20 08:02:16;;;;;;;44.00;30.10;;;;;;;5.29;100.00;97249.22;4997217;28;20021;-74
2021/11/20 08:04:45;;;;;;;22.43;15.40;;;;;;;5.39;100.00;97247.69;5001553;28;20508;-74
2021/11/20 08:07:44;;;;;;;18.17;12.30;;;;;;;5.28;100.00;97241.53;4996431;28;20041;-74
2021/11/20 08:10:35;;;;;;;23.70;15.67;;;;;;;5.30;100.00;97245.69;5016705;28;20029;-74
2021/11/20 08:13:01;;;;;;;24.63;16.37;;;;;;;5.27;100.00;97245.06;5024269;28;20493;-74
2021/11/20 08:15:48;;;;;;;20.20;14.07;;;;;;;5.26;100.00;97236.38;5009483;28;20044;-74
2021/11/20 08:18:32;;;;;;;19.10;13.50;;;;;;;5.28;100.00;97237.13;5039881;28;20137;-74
2021/11/20 08:21:28;;;;;;;24.13;16.83;;;;;;;5.28;100.00;97234.53;5019649;28;20033;-74
2021/11/20 08:24:28;;;;;;;22.07;14.63;;;;;;;5.36;100.00;97229.63;4993576;28;20049;-74
2021/11/20 08:26:56;;;;;;;22.43;15.13;;;;;;;5.39;100.00;97234.63;5007871;28;20033;-74
2021/11/20 08:29:23;;;;;;;23.30;13.90;;;;;;;5.40;100.00;97227.66;4998411;28;20028;-74
2021/11/20 08:31:51;;;;;;;28.77;17.23;;;;;;;5.41;100.00;97229.34;4997688;28;20111;-74
2021/11/20 08:34:45;;;;;;;;;;;;;;;5.44;100.00;97221.31;5021653;28;20038;-74
2021/11/20 08:37:33;;;;;;;13.13;8.13;;;;;;;5.54;100.00;97217.13;5030717;28;19916;-74
2021/11/20 08:40:21;;;;;;;14.17;9.57;;;;;;;5.60;100.00;97218.47;5042460;28;20059;-74
2021/11/20 08:42:48;;;;;;;16.17;10.30;;;;;;;5.70;100.00;97211.72;5023022;28;20454;-74
2021/11/20 08:45:17;;;;;;;19.50;11.77;;;;;;;5.67;100.00;97210.13;5008225;28;20025;-74
2021/11/20 08:47:53;;;;;;;15.30;11.07;;;;;;;5.62;100.00;97209.59;5014595;28;20108;-74
2021/11/20 08:50:29;;;;;;;13.93;8.93;;;;;;;5.61;100.00;97207.94;5002683;28;20042;-74
2021/11/20 08:52:56;;;;;;;13.73;9.67;;;;;;;5.68;100.00;97203.97;4998420;28;20033;-73
2021/11/20 08:55:23;;;;;;;15.17;10.43;;;;;;;5.78;100.00;97198.13;5025966;28;20025;-74
2021/11/20 08:57:51;;;;;;;16.37;10.67;;;;;;;5.86;100.00;97199.25;5002472;28;20089;-75
2021/11/20 09:00:30;;;;;;;12.43;8.73;;;;;;;5.92;100.00;97190.16;4996173;28;20021;-76
2021/11/20 09:03:26;;;;;;;10.98;7.03;;;;;;;5.88;100.00;97193.94;5012412;28;20030;-75
2021/11/20 09:06:13;;;;;;;13.03;7.97;;;;;;;5.86;100.00;97186.19;5001270;28;20065;-74
2021/11/20 09:08:42;;;;;;;12.03;7.80;;;;;;;5.95;100.00;97194.38;5020748;28;20094;-75
2021/11/20 09:11:47;;;;;;;11.50;8.30;;;;;;;5.95;100.00;97179.53;5017360;28;20080;-74
2021/11/20 09:14:20;;;;;;;13.10;7.77;;;;;;;5.99;100.00;97182.78;5029690;28;20033;-74
2021/11/20 09:17:03;;;;;;;11.77;8.20;;;;;;;5.96;100.00;97188.22;5008517;28;20033;-74
2021/11/20 09:19:32;;;;;;;10.90;7.57;;;;;;;5.91;100.00;97184.13;5018807;28;20520;-75
2021/11/20 09:21:59;;;;;;;11.40;7.97;;;;;;;5.96;100.00;97190.81;5014944;28;20026;-75
2021/11/20 09:24:54;;;;;;;11.03;8.03;;;;;;;6.04;100.00;97186.75;4978508;28;20035;-75
2021/11/20 09:27:24;;;;;;;14.77;8.57;;;;;;;6.03;100.00;97187.66;5022193;28;20502;-75
2021/11/20 09:29:52;;;;;;;17.70;12.10;;;;;;;6.04;100.00;97184.13;5011639;28;20041;-76
2021/11/20 09:32:18;;;;;;;13.53;8.77;;;;;;;5.99;100.00;97185.38;5005351;28;20120;-75
2021/11/20 09:34:45;;;;;;;11.40;7.53;;;;;;;6.04;100.00;97184.13;4998237;28;20113;-75
2021/11/20 09:37:22;;;;;;;13.77;8.70;;;;;;;5.86;100.00;97182.75;5015277;28;20395;-75
2021/11/20 09:40:06;;;;;;;15.10;11.13;;;;;;;5.87;100.00;97177.44;5021296;28;20090;-76
2021/11/20 09:43:01;;;;;;;13.17;9.80;;;;;;;5.92;100.00;97184.94;5001314;28;20568;-75
2021/11/20 09:45:30;;;;;;;14.30;9.27;;;;;;;5.88;100.00;97179.09;5010590;28;20072;-76
2021/11/20 09:48:39;;;;;;;12.80;7.47;;;;;;;5.74;100.00;97184.47;4991056;28;20017;-75
2021/11/20 09:51:19;;;;;;;11.23;7.50;;;;;;;5.79;100.00;97176.28;5018285;28;20091;-76
2021/11/20 09:53:46;;;;;;;11.03;7.53;;;;;;;5.86;100.00;97174.94;5013574;28;20063;-76
2021/11/20 09:56:21;;;;;;;11.80;8.43;;;;;;;5.87;100.00;97169.63;5035732;28;20516;-76
2021/11/20 09:58:52;;;;;;;12.27;7.83;;;;;;;5.95;100.00;97166.50;5013908;28;20033;-76
2021/11/20 10:01:47;;;;;;;10.43;6.80;;;;;;;6.03;100.00;97165.94;4998246;28;20034;-75
2021/11/20 10:04:25;;;;;;;11.87;7.33;;;;;;;6.00;100.00;97163.53;5015175;28;20041;-75
2021/11/20 10:07:36;;;;;;;12.33;7.73;;;;;;;6.10;100.00;97164.56;5029319;28;20466;-76
2021/11/20 10:10:46;;;;;;;12.93;9.00;;;;;;;6.29;100.00;97154.47;4950483;28;20035;-75
2021/11/20 10:13:16;;;;;;;12.80;8.70;;;;;;;6.28;100.00;97159.81;4944116;28;20318;-76
2021/11/20 10:16:02;;;;;;;11.17;7.83;;;;;;;6.27;100.00;97148.56;5008299;28;20053;-76
2021/11/20 10:18:30;;;;;;;11.50;7.30;;;;;;;6.27;100.00;97148.56;5013793;28;20037;-76
2021/11/20 10:21:00;;;;;;;10.37;6.93;;;;;;;6.24;100.00;97150.56;5008491;28;20029;-76
2021/11/20 10:23:44;;;;;;;10.77;7.03;;;;;;;6.18;100.00;97143.97;4995697;28;20021;-76
2021/11/20 10:26:46;;;;;;;11.03;6.57;;;;;;;6.07;100.00;97147.34;5004923;28;20069;-76
2021/11/20 10:29:21;;;;;;;9.07;6.17;;;;;;;5.91;100.00;97142.34;5015755;28;20029;-76
2021/11/20 10:31:50;;;;;;;11.88;5.93;;;;;;;6.12;100.00;97132.19;5018970;28;20086;-76
2021/11/20 10:34:37;;;;;;;9.77;6.10;;;;;;;6.13;100.00;97125.19;5017243;28;20550;-76
2021/11/20 10:37:17;;;;;;;8.30;5.37;;;;;;;6.28;100.00;97126.69;5018933;28;20502;-76
2021/11/20 10:39:49;;;;;;;8.23;5.03;;;;;;;6.23;100.00;97117.50;5011108;28;20043;-76
2021/11/20 10:42:37;;;;;;;10.03;5.33;;;;;;;6.23;100.00;97115.72;5033715;28;20518;-76
2021/11/20 10:45:03;;;;;;;8.83;5.60;;;;;;;6.43;100.00;97111.69;5036150;28;20063;-75
2021/11/20 10:47:39;;;;;;;10.50;6.20;;;;;;;6.44;100.00;97110.75;5004358;28;20449;-76
2021/11/20 10:50:23;;;;;;;10.27;6.17;;;;;;;6.59;100.00;97114.00;5028999;28;20503;-76
2021/11/20 10:53:23;;;;;;;9.90;5.23;;;;;;;6.48;100.00;97106.13;5029191;28;20056;-76
2021/11/20 10:56:23;;;;;;;8.07;4.70;;;;;;;6.47;100.00;97107.06;5007343;28;20112;-77
2021/11/20 10:59:13;;;;;;;9.43;5.27;;;;;;;6.40;100.00;97104.06;5003371;28;20100;-76
2021/11/20 11:01:42;;;;;;;8.43;4.80;;;;;;;6.42;100.00;97093.50;4996510;28;20031;-76
2021/11/20 11:04:54;;;;;;;8.83;4.90;;;;;;;6.56;100.00;97086.31;5032654;28;20024;-76
2021/11/20 11:07:32;;;;;;;9.30;4.97;;;;;;;6.20;100.00;97082.00;5001925;28;20095;-77
2021/11/20 11:10:03;;;;;;;8.47;5.23;;;;;;;6.33;100.00;97077.56;5020624;28;20037;-77
2021/11/20 11:12:53;;;;;;;8.53;5.20;;;;;;;6.42;100.00;97072.63;5004473;28;20029;-76
2021/11/20 11:15:31;;;;;;;9.10;5.10;;;;;;;6.40;100.00;97064.03;5016883;28;21687;-76
2021/11/20 11:18:25;;;;;;;10.20;6.23;;;;;;;6.40;100.00;97069.28;5015282;28;20403;-76
2021/11/20 11:20:50;;;;;;;;;;;;;;;6.38;100.00;97056.34;5008964;28;20049;-76
2021/11/20 11:23:19;;;;;;;9.57;5.23;;;;;;;6.57;100.00;97051.41;5016789;28;19913;-76
2021/11/20 11:25:57;;;;;;;10.47;4.80;;;;;;;6.69;100.00;97048.81;5024090;28;20036;-76
2021/11/20 11:28:30;;;;;;;8.60;4.50;;;;;;;6.59;100.00;97040.84;5039865;28;20057;-76
2021/11/20 11:31:26;;;;;;;7.95;4.35;;;;;;;6.46;100.00;97033.06;5029427;28;20040;-77
2021/11/20 11:33:59;;;;;;;6.90;4.03;;;;;;;6.51;100.00;97030.13;5014370;28;20040;-78
2021/11/20 11:36:52;;;;;;;6.75;3.92;;;;;;;6.47;100.00;97031.28;5007515;28;20123;-76
2021/11/20 11:39:33;;;;;;;9.00;4.38;;;;;;;6.44;100.00;97023.66;5029414;28;20067;-76
2021/11/20 11:42:28;;;;;;;7.57;3.90;;;;;;;6.47;100.00;97018.22;5012911;28;20040;-76
2021/11/20 11:45:57;;;;;;;8.17;4.10;;;;;;;6.62;100.00;97014.47;5015990;28;20048;-76
2021/11/20 11:48:41;;;;;;;7.33;4.27;;;;;;;6.61;100.00;97007.59;4977948;28;20031;-76
2021/11/20 11:51:35;;;;;;;7.87;4.47;;;;;;;6.59;100.00;96993.78;5023553;28;20045;-76
2021/11/20 11:54:38;;;;;;;7.93;4.70;;;;;;;6.55;100.00;96990.59;4994564;28;20053;-76
2021/11/20 11:57:23;;;;;;;7.23;3.77;;;;;;;6.46;100.00;96982.59;4996098;28;20077;-76
2021/11/20 12:00:18;;;;;;;6.90;4.37;;;;;;;6.48;100.00;96978.09;5014906;28;20144;-77